Terminal Aerodrome Forecast
Issued by NWS San Angelo, TX

Home | Current Version | Previous Version | Text Only | Print | Product List | Glossary On
Versions: 1 2 3 4 5 6 7 8 9 10 11 12 13 14 15 16 17 18 19
000
FTUS44 KSJT 290141 AAB
TAFSJT
TAF AMD
KSJT 290141Z 2902/2924 22030G60KT 1/2SM TSRA BKN035CB
     FM290400 25007KT P6SM -SHRA SCT030 BKN250
     FM291500 23018G25KT P6SM SKC=

USA.gov is the U.S. government's official web portal to all federal, state and local government web resources and services.